createdAt,value
2017-10-19T00:01:50.187Z,12.70
2017-10-19T00:04:25.621Z,12.70
2017-10-19T00:06:57.893Z,12.80
2017-10-19T00:09:32.300Z,12.90
2017-10-19T00:12:06.307Z,12.90
2017-10-19T00:14:37.879Z,12.90
2017-10-19T00:17:08.660Z,12.90
2017-10-19T00:19:40.562Z,12.90
2017-10-19T00:22:12.420Z,12.90
2017-10-19T00:24:44.180Z,12.90
2017-10-19T00:27:17.568Z,12.80
2017-10-19T00:29:49.540Z,12.70
2017-10-19T00:32:21.200Z,12.70
2017-10-19T00:34:53.361Z,12.70
2017-10-19T00:37:26.703Z,12.60
2017-10-19T00:39:58.920Z,12.50
2017-10-19T00:42:30.980Z,12.40
2017-10-19T00:45:11.671Z,12.40
2017-10-19T00:47:49.141Z,12.50
2017-10-19T00:50:20.299Z,12.50
2017-10-19T00:52:55.620Z,12.50
2017-10-19T00:55:27.200Z,12.50
2017-10-19T00:57:59.439Z,12.60
2017-10-19T01:00:37.679Z,12.60
2017-10-19T01:03:08.800Z,12.60
2017-10-19T01:05:39.340Z,12.60
2017-10-19T01:08:13.560Z,12.60
2017-10-19T01:10:45.003Z,12.50
2017-10-19T01:13:17.160Z,12.50
2017-10-19T01:15:50.249Z,12.50
2017-10-19T01:18:28.440Z,12.50
2017-10-19T01:20:59.500Z,12.50
2017-10-19T01:23:31.652Z,12.50
2017-10-19T01:26:04.340Z,12.50
2017-10-19T01:28:35.775Z,12.50
2017-10-19T01:31:07.640Z,12.50
2017-10-19T01:33:39.620Z,12.50
2017-10-19T01:36:10.961Z,12.60
2017-10-19T01:38:46.286Z,12.60
2017-10-19T01:41:19.079Z,12.60
2017-10-19T01:43:51.359Z,12.70
2017-10-19T01:46:27.680Z,12.60
2017-10-19T01:49:00.699Z,12.60
2017-10-19T01:51:36.720Z,12.50
2017-10-19T01:54:08.002Z,12.40
2017-10-19T01:56:39.983Z,12.40
2017-10-19T01:59:10.402Z,12.40
2017-10-19T02:01:44.601Z,12.30
2017-10-19T02:04:16.260Z,12.30
2017-10-19T02:06:47.220Z,12.30
2017-10-19T02:09:18.980Z,12.20
2017-10-19T02:11:49.699Z,12.20
2017-10-19T02:14:23.082Z,12.20
2017-10-19T02:16:54.639Z,12.20
2017-10-19T02:19:24.660Z,12.20
2017-10-19T02:22:00.199Z,12.10
2017-10-19T02:24:42.200Z,12.10
2017-10-19T02:27:13.442Z,12.10
2017-10-19T02:29:45.200Z,12.10
2017-10-19T02:32:16.140Z,12.10
2017-10-19T02:34:47.400Z,12.10
2017-10-19T02:37:25.900Z,12.00
2017-10-19T02:40:01.686Z,12.00
2017-10-19T02:42:33.003Z,12.00
2017-10-19T02:45:09.692Z,12.00
2017-10-19T02:47:42.663Z,11.90
2017-10-19T02:50:14.000Z,11.90
2017-10-19T02:52:48.700Z,11.90
2017-10-19T02:55:20.180Z,11.90
2017-10-19T02:57:51.729Z,11.90
2017-10-19T03:00:22.720Z,11.90
2017-10-19T03:02:58.319Z,11.90
2017-10-19T03:05:29.963Z,11.90
2017-10-19T03:19:41.700Z,11.70
2017-10-19T03:22:14.331Z,11.70
2017-10-19T03:24:45.141Z,11.70
2017-10-19T03:27:15.874Z,11.60
2017-10-19T03:29:46.423Z,11.60
2017-10-19T03:32:17.659Z,11.60
2017-10-19T03:34:50.225Z,11.60
2017-10-19T03:37:26.400Z,11.60
2017-10-19T03:39:58.064Z,11.60
2017-10-19T03:42:29.180Z,11.60
2017-10-19T03:45:01.701Z,11.60
2017-10-19T03:47:36.682Z,11.60
2017-10-19T03:50:10.199Z,11.60
2017-10-19T03:52:41.570Z,11.60
2017-10-19T03:55:12.421Z,11.60
2017-10-19T03:57:47.420Z,11.60
2017-10-19T04:00:20.920Z,11.60
2017-10-19T04:02:53.384Z,11.60
2017-10-19T04:05:32.708Z,11.50
2017-10-19T04:08:04.361Z,11.50
2017-10-19T04:10:37.446Z,11.50
2017-10-19T04:13:09.419Z,11.50
2017-10-19T04:15:39.440Z,11.50
2017-10-19T04:18:10.981Z,11.40
2017-10-19T04:20:50.690Z,11.40
2017-10-19T04:23:28.944Z,11.30
2017-10-19T04:26:02.139Z,11.30
2017-10-19T04:28:33.746Z,11.40
2017-10-19T04:31:04.939Z,11.30
2017-10-19T04:33:43.699Z,11.40
2017-10-19T04:36:18.069Z,11.30
2017-10-19T04:38:49.320Z,11.40
2017-10-19T04:41:21.580Z,11.50
2017-10-19T04:43:54.682Z,11.50
2017-10-19T04:46:24.741Z,11.50
2017-10-19T04:48:56.560Z,11.40
2017-10-19T04:51:28.621Z,11.30
2017-10-19T04:54:06.521Z,11.30
2017-10-19T04:56:36.719Z,11.30
2017-10-19T04:59:07.682Z,11.50
2017-10-19T05:01:39.540Z,11.50
2017-10-19T05:04:13.560Z,11.50
2017-10-19T05:06:44.380Z,11.40
2017-10-19T05:09:20.539Z,11.40
2017-10-19T05:11:51.760Z,11.50
2017-10-19T05:14:29.580Z,11.50
2017-10-19T05:17:00.702Z,11.60
2017-10-19T05:19:33.720Z,11.60
2017-10-19T05:22:06.400Z,11.50
2017-10-19T05:24:37.539Z,11.50
2017-10-19T05:27:09.404Z,11.50
2017-10-19T05:29:40.360Z,11.50
2017-10-19T05:32:11.600Z,11.40
2017-10-19T05:34:42.420Z,11.50
2017-10-19T05:37:16.240Z,11.50
2017-10-19T05:39:48.899Z,11.50
2017-10-19T05:42:19.728Z,11.50
2017-10-19T05:44:50.740Z,11.50
2017-10-19T05:47:22.020Z,11.60
2017-10-19T05:49:52.860Z,11.70
2017-10-19T05:52:24.760Z,11.70
2017-10-19T05:54:55.659Z,11.70
2017-10-19T05:57:27.100Z,11.70
2017-10-19T06:00:00.300Z,11.80
2017-10-19T06:02:36.360Z,11.80
2017-10-19T06:05:09.240Z,11.80
2017-10-19T06:07:40.740Z,11.90
2017-10-19T06:10:11.722Z,11.90
2017-10-19T06:12:43.601Z,11.90
2017-10-19T06:15:14.419Z,11.80
2017-10-19T06:17:47.620Z,11.70
2017-10-19T06:20:19.880Z,11.70
2017-10-19T06:22:52.162Z,11.70
2017-10-19T06:25:24.423Z,11.60
2017-10-19T06:27:56.760Z,11.60
2017-10-19T06:30:28.860Z,11.70
2017-10-19T06:33:01.120Z,11.60
2017-10-19T06:35:31.960Z,11.70
2017-10-19T06:38:03.780Z,11.80
2017-10-19T06:40:35.080Z,11.80
2017-10-19T06:43:07.860Z,11.80
2017-10-19T06:45:39.080Z,11.90
2017-10-19T06:48:09.800Z,11.90
2017-10-19T06:50:40.741Z,12.00
2017-10-19T06:53:12.940Z,12.10
2017-10-19T06:55:44.179Z,12.10
2017-10-19T06:58:16.141Z,12.10
2017-10-19T07:00:49.120Z,12.20
2017-10-19T07:03:20.060Z,12.20
2017-10-19T07:05:54.740Z,12.30
2017-10-19T07:08:26.859Z,12.40
2017-10-19T07:10:59.020Z,12.50
2017-10-19T07:13:30.723Z,12.60
2017-10-19T07:16:02.840Z,12.70
2017-10-19T07:18:35.760Z,12.80
2017-10-19T07:21:07.480Z,12.90
2017-10-19T07:23:38.780Z,13.00
2017-10-19T07:26:09.740Z,12.90
2017-10-19T07:28:41.720Z,13.20
2017-10-19T07:31:14.721Z,13.30
2017-10-19T07:33:46.480Z,13.30
2017-10-19T07:36:18.120Z,13.40
2017-10-19T07:38:48.661Z,13.50
2017-10-19T07:41:22.360Z,13.60
2017-10-19T07:43:55.740Z,13.70
2017-10-19T07:46:27.000Z,13.70
2017-10-19T07:48:59.459Z,13.90
2017-10-19T07:51:30.529Z,14.10
2017-10-19T07:54:02.381Z,14.60
2017-10-19T07:56:34.340Z,14.70
2017-10-19T07:59:06.719Z,14.70
2017-10-19T08:01:37.440Z,14.70
2017-10-19T08:04:09.400Z,14.70
2017-10-19T08:06:40.140Z,14.80
2017-10-19T08:09:10.268Z,14.80
2017-10-19T08:11:40.363Z,14.90
2017-10-19T08:14:13.240Z,14.90
2017-10-19T08:16:45.720Z,15.40
2017-10-19T08:19:16.560Z,14.90
2017-10-19T08:21:48.620Z,15.10
2017-10-19T08:24:19.460Z,15.20
2017-10-19T08:26:51.426Z,15.30
2017-10-19T08:29:26.041Z,15.30
2017-10-19T08:31:58.520Z,15.40
2017-10-19T08:34:29.860Z,15.50
2017-10-19T08:37:02.741Z,15.40
2017-10-19T08:39:33.901Z,15.50
2017-10-19T08:42:06.680Z,15.40
2017-10-19T08:44:38.441Z,15.60
2017-10-19T08:47:09.980Z,15.60
2017-10-19T08:49:41.340Z,15.80
2017-10-19T08:52:12.981Z,15.90
2017-10-19T08:54:44.340Z,15.90
2017-10-19T08:57:18.240Z,15.90
2017-10-19T08:59:52.564Z,16.00
2017-10-19T09:02:24.020Z,16.10
2017-10-19T09:04:54.826Z,16.10
2017-10-19T09:07:25.380Z,16.20
2017-10-19T09:09:58.760Z,16.10
2017-10-19T09:12:31.260Z,16.20
2017-10-19T09:15:03.521Z,16.20
2017-10-19T09:17:35.481Z,16.20
2017-10-19T09:20:07.019Z,16.40
2017-10-19T09:22:39.030Z,16.50
2017-10-19T09:25:11.880Z,16.50
2017-10-19T09:27:43.780Z,16.70
2017-10-19T09:30:16.419Z,17.00
2017-10-19T09:32:47.667Z,17.10
2017-10-19T09:35:22.500Z,17.30
2017-10-19T09:37:53.422Z,17.40
2017-10-19T09:40:26.720Z,17.50
2017-10-19T09:42:58.687Z,17.50
2017-10-19T09:45:34.421Z,17.70
2017-10-19T09:48:06.180Z,17.90
2017-10-19T09:50:47.460Z,18.00
2017-10-19T09:53:27.760Z,18.10
2017-10-19T09:56:01.120Z,18.20
2017-10-19T09:58:33.384Z,18.40
2017-10-19T10:01:05.660Z,18.40
2017-10-19T10:03:36.600Z,18.40
2017-10-19T10:06:08.239Z,18.10
2017-10-19T10:08:38.879Z,18.20
2017-10-19T10:11:10.760Z,18.20
2017-10-19T10:13:41.747Z,18.30
2017-10-19T10:16:14.360Z,18.30
2017-10-19T10:18:45.700Z,18.40
2017-10-19T10:21:17.880Z,18.50
2017-10-19T10:23:48.401Z,18.50
2017-10-19T10:26:21.480Z,18.60
2017-10-19T10:28:53.460Z,18.70
2017-10-19T10:31:25.320Z,18.70
2017-10-19T10:33:56.039Z,18.80
2017-10-19T10:36:26.680Z,18.90
2017-10-19T10:38:59.859Z,19.10
2017-10-19T10:41:33.880Z,19.20
2017-10-19T10:44:08.280Z,19.30
2017-10-19T10:46:42.400Z,19.30
2017-10-19T10:49:15.502Z,19.30
2017-10-19T10:51:47.861Z,19.10
2017-10-19T10:54:21.060Z,19.10
2017-10-19T10:56:55.379Z,19.20
2017-10-19T10:59:30.520Z,19.50
2017-10-19T11:02:00.725Z,19.50
2017-10-19T11:04:32.760Z,19.80
2017-10-19T11:07:03.520Z,19.80
2017-10-19T11:09:34.560Z,19.90
2017-10-19T11:12:10.420Z,19.60
2017-10-19T11:14:41.260Z,19.70
2017-10-19T11:17:12.200Z,19.80
2017-10-19T11:19:42.419Z,19.70
2017-10-19T11:22:13.761Z,19.70
2017-10-19T11:24:45.300Z,19.90
2017-10-19T11:27:16.560Z,19.90
2017-10-19T11:29:49.759Z,20.30
2017-10-19T11:32:23.800Z,20.60
2017-10-19T11:34:55.320Z,20.90
2017-10-19T11:37:27.903Z,21.00
2017-10-19T11:39:58.507Z,20.90
2017-10-19T11:42:30.279Z,20.90
2017-10-19T11:45:02.760Z,20.90
2017-10-19T11:47:33.780Z,21.10
2017-10-19T11:50:05.800Z,21.30
2017-10-19T11:52:39.360Z,21.50
2017-10-19T11:55:10.500Z,21.90
2017-10-19T11:57:41.720Z,22.00
2017-10-19T12:00:12.480Z,22.00
2017-10-19T12:02:46.480Z,22.20
2017-10-19T12:05:18.447Z,22.50
2017-10-19T12:07:49.280Z,22.50
2017-10-19T12:10:22.459Z,22.50
2017-10-19T12:12:54.046Z,22.50
2017-10-19T12:15:29.149Z,22.40
2017-10-19T12:18:00.200Z,22.40
2017-10-19T12:20:36.800Z,21.80
2017-10-19T12:23:09.760Z,21.40
2017-10-19T12:25:45.199Z,21.00
2017-10-19T12:28:15.801Z,20.80
2017-10-19T12:30:46.342Z,20.80
2017-10-19T12:33:19.760Z,20.20
2017-10-19T12:35:51.100Z,19.90
2017-10-19T12:38:22.040Z,19.80
2017-10-19T12:40:52.480Z,19.70
2017-10-19T12:43:25.800Z,19.40
2017-10-19T12:45:56.800Z,19.30
2017-10-19T12:48:28.961Z,19.20
2017-10-19T12:50:59.686Z,19.10
2017-10-19T12:53:32.899Z,19.30
2017-10-19T12:56:04.440Z,19.30
2017-10-19T12:58:36.103Z,19.10
2017-10-19T13:01:06.020Z,19.00
2017-10-19T13:03:36.541Z,18.90
2017-10-19T13:06:09.740Z,18.60
2017-10-19T13:08:42.099Z,18.40
2017-10-19T13:11:13.140Z,18.40
2017-10-19T13:13:44.900Z,18.30
2017-10-19T13:16:16.139Z,18.30
2017-10-19T13:18:48.420Z,18.20
2017-10-19T13:21:19.479Z,18.20
2017-10-19T13:23:52.120Z,18.10
2017-10-19T13:26:28.780Z,18.10
2017-10-19T13:29:01.394Z,18.00
2017-10-19T13:31:31.700Z,18.00
2017-10-19T13:34:04.081Z,18.10
2017-10-19T13:36:34.719Z,18.10
2017-10-19T13:39:06.680Z,18.00
2017-10-19T13:41:40.160Z,17.90
2017-10-19T13:44:11.720Z,17.90
2017-10-19T13:46:42.260Z,17.90
2017-10-19T13:49:13.801Z,17.90
2017-10-19T13:51:45.645Z,18.00
2017-10-19T13:54:17.520Z,18.00
2017-10-19T13:56:51.781Z,18.00
2017-10-19T13:59:23.805Z,18.10
2017-10-19T14:02:03.803Z,18.10
2017-10-19T14:04:35.720Z,18.20
2017-10-19T14:07:08.080Z,18.10
2017-10-19T14:09:40.145Z,18.10
2017-10-19T14:12:11.280Z,18.00
2017-10-19T14:14:42.780Z,18.00
2017-10-19T14:17:15.320Z,18.00
2017-10-19T14:19:47.780Z,18.00
2017-10-19T14:22:18.119Z,18.00
2017-10-19T14:24:52.801Z,18.10
2017-10-19T14:27:25.929Z,18.10
2017-10-19T14:30:01.460Z,18.10
2017-10-19T14:32:32.806Z,18.10
2017-10-19T14:35:11.800Z,18.10
2017-10-19T14:37:44.940Z,18.10
2017-10-19T14:40:17.299Z,18.10
2017-10-19T14:42:53.800Z,18.20
2017-10-19T14:45:24.822Z,18.20
2017-10-19T14:47:56.583Z,18.20
2017-10-19T14:50:30.280Z,18.20
2017-10-19T14:53:01.720Z,18.20
2017-10-19T14:55:32.061Z,18.20
2017-10-19T14:58:04.939Z,18.20
2017-10-19T15:00:40.380Z,18.20
2017-10-19T15:03:12.020Z,18.20
2017-10-19T15:05:44.400Z,18.30
2017-10-19T15:08:15.139Z,18.30
2017-10-19T15:10:48.800Z,18.30
2017-10-19T15:13:20.501Z,18.30
2017-10-19T15:15:56.339Z,18.30
2017-10-19T15:18:30.959Z,18.30
2017-10-19T15:21:03.339Z,18.30
2017-10-19T15:23:34.379Z,18.30
2017-10-19T15:26:07.580Z,18.20
2017-10-19T15:28:41.160Z,18.20
2017-10-19T15:31:13.040Z,18.20
2017-10-19T15:33:47.340Z,18.20
2017-10-19T15:36:19.801Z,18.10
2017-10-19T15:38:50.240Z,18.10
2017-10-19T15:41:23.740Z,18.20
2017-10-19T15:43:54.479Z,18.10
2017-10-19T15:46:28.281Z,18.10
2017-10-19T15:48:59.540Z,18.10
2017-10-19T15:51:31.399Z,18.00
2017-10-19T15:54:02.540Z,17.90
2017-10-19T15:56:33.680Z,17.90
2017-10-19T15:59:05.640Z,17.90
2017-10-19T16:01:36.819Z,17.90
2017-10-19T16:04:08.941Z,17.90
2017-10-19T16:06:41.420Z,17.80
2017-10-19T16:09:13.180Z,17.80
2017-10-19T16:11:44.320Z,17.80
2017-10-19T16:14:15.159Z,17.70
2017-10-19T16:16:46.701Z,17.60
2017-10-19T16:19:17.802Z,17.60
2017-10-19T16:21:51.961Z,17.50
2017-10-19T16:24:22.840Z,17.40
2017-10-19T16:26:54.148Z,17.40
2017-10-19T16:29:31.540Z,17.40
2017-10-19T16:32:03.080Z,17.40
2017-10-19T16:34:34.340Z,17.20
2017-10-19T16:37:06.081Z,17.20
2017-10-19T16:39:37.140Z,17.20
2017-10-19T16:42:11.339Z,17.10
2017-10-19T16:44:42.861Z,17.10
2017-10-19T16:47:16.520Z,17.00
2017-10-19T16:49:47.747Z,17.00
2017-10-19T16:52:18.260Z,17.00
2017-10-19T16:54:49.520Z,16.90
2017-10-19T16:57:23.323Z,16.90
2017-10-19T16:59:56.520Z,16.80
2017-10-19T17:02:31.280Z,16.80
2017-10-19T17:05:02.504Z,16.60
2017-10-19T17:07:36.859Z,16.60
2017-10-19T17:10:08.060Z,16.60
2017-10-19T17:12:39.303Z,16.50
2017-10-19T17:15:10.240Z,16.50
2017-10-19T17:17:42.400Z,16.50
2017-10-19T17:20:15.181Z,16.50
2017-10-19T17:22:45.500Z,16.50
2017-10-19T17:25:18.800Z,16.30
2017-10-19T17:27:53.020Z,16.30
2017-10-19T17:30:24.660Z,16.20
2017-10-19T17:32:55.859Z,16.10
2017-10-19T17:35:26.741Z,16.10
2017-10-19T17:37:57.279Z,16.10
2017-10-19T17:40:27.900Z,16.00
2017-10-19T17:43:07.640Z,16.00
2017-10-19T17:45:39.200Z,16.00
2017-10-19T17:48:10.540Z,16.00
2017-10-19T17:50:41.480Z,16.00
2017-10-19T17:53:12.222Z,15.90
2017-10-19T17:55:47.820Z,15.90
2017-10-19T17:58:20.240Z,15.90
2017-10-19T18:00:52.300Z,15.90
2017-10-19T18:03:23.239Z,15.90
2017-10-19T18:05:56.940Z,15.80
2017-10-19T18:08:28.800Z,15.70
2017-10-19T18:11:00.859Z,15.80
2017-10-19T18:13:31.879Z,15.80
2017-10-19T18:16:03.820Z,15.80
2017-10-19T18:18:36.340Z,15.80
2017-10-19T18:21:08.100Z,15.70
2017-10-19T18:23:39.240Z,15.60
2017-10-19T18:26:10.080Z,15.60
2017-10-19T18:28:42.459Z,15.50
2017-10-19T18:31:15.541Z,15.50
2017-10-19T18:33:46.840Z,15.50
2017-10-19T18:36:18.540Z,15.50
2017-10-19T18:38:48.960Z,15.40
2017-10-19T18:41:23.705Z,15.40
2017-10-19T18:44:02.840Z,15.40
2017-10-19T18:46:34.280Z,15.40
2017-10-19T18:49:06.940Z,15.40
2017-10-19T18:51:44.839Z,15.40
2017-10-19T18:54:18.342Z,15.30
2017-10-19T18:56:49.380Z,15.40
2017-10-19T18:59:21.149Z,15.20
2017-10-19T19:01:51.780Z,15.20
2017-10-19T19:04:22.501Z,15.20
2017-10-19T19:06:54.160Z,15.10
2017-10-19T19:09:26.960Z,15.10
2017-10-19T19:12:00.260Z,15.00
2017-10-19T19:14:34.355Z,15.00
2017-10-19T19:17:05.100Z,15.00
2017-10-19T19:19:36.340Z,15.00
2017-10-19T19:22:08.213Z,15.00
2017-10-19T19:24:40.461Z,14.90
2017-10-19T19:27:14.480Z,14.90
2017-10-19T19:29:46.120Z,14.90
2017-10-19T19:32:16.760Z,14.90
2017-10-19T19:34:48.199Z,14.90
2017-10-19T19:37:19.960Z,14.90
2017-10-19T19:39:52.120Z,14.90
2017-10-19T19:42:23.280Z,14.90
2017-10-19T19:44:54.520Z,14.90
2017-10-19T19:47:25.561Z,14.90
2017-10-19T19:49:57.324Z,14.90
2017-10-19T19:52:28.667Z,14.80
2017-10-19T19:55:01.369Z,14.80
2017-10-19T19:57:37.701Z,14.80
2017-10-19T20:00:09.660Z,14.80
2017-10-19T20:02:40.500Z,14.80
2017-10-19T20:05:12.460Z,14.80
2017-10-19T20:07:44.321Z,14.80
2017-10-19T20:10:18.022Z,14.70
2017-10-19T20:12:48.774Z,14.70
2017-10-19T20:15:22.160Z,14.70
2017-10-19T20:17:53.800Z,14.70
2017-10-19T20:20:25.860Z,14.80
2017-10-19T20:22:59.840Z,14.80
2017-10-19T20:25:31.241Z,14.80
2017-10-19T20:28:02.181Z,14.70
2017-10-19T20:30:34.045Z,14.80
2017-10-19T20:33:04.984Z,14.80
2017-10-19T20:35:40.524Z,14.80
2017-10-19T20:38:12.180Z,14.70
2017-10-19T20:40:45.864Z,14.70
2017-10-19T20:43:24.861Z,14.70
2017-10-19T20:45:57.060Z,14.80
2017-10-19T20:48:27.840Z,14.90
2017-10-19T20:51:00.841Z,14.90
2017-10-19T20:53:32.861Z,14.90
2017-10-19T20:56:04.001Z,14.90
2017-10-19T20:58:43.847Z,14.80
2017-10-19T21:01:18.362Z,14.80
2017-10-19T21:03:50.620Z,14.80
2017-10-19T21:06:23.100Z,14.80
2017-10-19T21:08:55.481Z,14.70
2017-10-19T21:11:28.460Z,14.70
2017-10-19T21:14:00.901Z,14.70
2017-10-19T21:16:32.801Z,14.70
2017-10-19T21:19:06.800Z,14.70
2017-10-19T21:21:37.921Z,14.70
2017-10-19T21:24:15.644Z,14.70
2017-10-19T21:26:47.100Z,14.70
2017-10-19T21:29:19.162Z,14.70
2017-10-19T21:31:51.121Z,14.70
2017-10-19T21:34:22.163Z,14.60
2017-10-19T21:36:52.860Z,14.70
2017-10-19T21:39:24.759Z,14.60
2017-10-19T21:41:57.021Z,14.60
2017-10-19T21:44:27.861Z,14.60
2017-10-19T21:46:58.700Z,14.70
2017-10-19T21:49:32.600Z,14.70
2017-10-19T21:52:04.160Z,14.70
2017-10-19T21:54:35.201Z,14.70
2017-10-19T21:57:08.180Z,14.70
2017-10-19T21:59:39.320Z,14.70
2017-10-19T22:02:10.380Z,14.60
2017-10-19T22:04:42.620Z,14.60
2017-10-19T22:07:16.640Z,14.50
2017-10-19T22:09:48.867Z,14.50
2017-10-19T22:12:20.461Z,14.50
2017-10-19T22:14:51.301Z,14.50
2017-10-19T22:17:22.740Z,14.50
2017-10-19T22:19:53.680Z,14.50
2017-10-19T22:22:25.540Z,14.50
2017-10-19T22:24:59.140Z,14.50
2017-10-19T22:27:30.180Z,14.50
2017-10-19T22:30:00.920Z,14.50
2017-10-19T22:32:31.542Z,14.50
2017-10-19T22:35:02.180Z,14.50
2017-10-19T22:37:36.401Z,14.50
2017-10-19T22:40:07.960Z,14.50
2017-10-19T22:42:38.999Z,14.50
2017-10-19T22:45:10.919Z,14.50
2017-10-19T22:47:41.580Z,14.50
2017-10-19T22:50:14.782Z,14.50
2017-10-19T22:52:47.140Z,14.50
2017-10-19T22:55:18.700Z,14.50
2017-10-19T22:57:50.900Z,14.60
2017-10-19T23:00:24.260Z,14.60
2017-10-19T23:02:55.500Z,14.60
2017-10-19T23:05:30.220Z,14.60
2017-10-19T23:08:02.304Z,14.60
2017-10-19T23:10:34.260Z,14.50
2017-10-19T23:13:10.420Z,14.50
2017-10-19T23:15:42.280Z,14.50
2017-10-19T23:18:16.700Z,14.50
2017-10-19T23:20:53.886Z,14.50
2017-10-19T23:23:32.861Z,14.50
2017-10-19T23:26:05.581Z,14.50
2017-10-19T23:28:36.620Z,14.40
2017-10-19T23:31:18.879Z,14.40
2017-10-19T23:33:50.280Z,14.30
2017-10-19T23:36:21.220Z,14.20
2017-10-19T23:38:53.180Z,14.20
2017-10-19T23:41:29.739Z,14.10
2017-10-19T23:44:00.867Z,14.10
2017-10-19T23:46:32.760Z,14.10
2017-10-19T23:49:05.900Z,14.10
2017-10-19T23:51:37.182Z,14.10
2017-10-19T23:54:10.180Z,14.00
2017-10-19T23:56:42.140Z,14.00
2017-10-19T23:59:13.380Z,13.90
